sensor_id;sensor_type;location;lat;lon;timestamp;P1;durP1;ratioP1;P2;durP2;ratioP2
62463;SDS011;48512;48.552;9.380;2023-08-07T00:02:19;3.50;;;1.63;;
62463;SDS011;48512;48.552;9.380;2023-08-07T00:04:45;4.55;;;1.38;;
62463;SDS011;48512;48.552;9.380;2023-08-07T00:07:11;3.88;;;1.75;;
62463;SDS011;48512;48.552;9.380;2023-08-07T00:09:37;4.82;;;1.55;;
62463;SDS011;48512;48.552;9.380;2023-08-07T00:12:03;5.30;;;2.00;;
62463;SDS011;48512;48.552;9.380;2023-08-07T00:14:30;7.80;;;1.88;;
62463;SDS011;48512;48.552;9.380;2023-08-07T00:16:56;4.68;;;2.17;;
62463;SDS011;48512;48.552;9.380;2023-08-07T00:19:22;3.22;;;1.70;;
62463;SDS011;48512;48.552;9.380;2023-08-07T00:21:48;3.08;;;1.63;;
62463;SDS011;48512;48.552;9.380;2023-08-07T00:24:15;4.32;;;1.65;;
62463;SDS011;48512;48.552;9.380;2023-08-07T00:26:41;2.85;;;1.60;;
62463;SDS011;48512;48.552;9.380;2023-08-07T00:29:07;8.98;;;3.58;;
62463;SDS011;48512;48.552;9.380;2023-08-07T00:31:33;4.10;;;1.67;;
62463;SDS011;48512;48.552;9.380;2023-08-07T00:33:59;4.93;;;1.98;;
62463;SDS011;48512;48.552;9.380;2023-08-07T00:36:25;4.05;;;1.95;;
62463;SDS011;48512;48.552;9.380;2023-08-07T00:38:54;5.65;;;2.15;;
62463;SDS011;48512;48.552;9.380;2023-08-07T00:41:20;6.43;;;1.70;;
62463;SDS011;48512;48.552;9.380;2023-08-07T00:43:46;5.20;;;1.80;;
62463;SDS011;48512;48.552;9.380;2023-08-07T00:46:12;5.80;;;2.05;;
62463;SDS011;48512;48.552;9.380;2023-08-07T00:48:38;3.58;;;1.80;;
62463;SDS011;48512;48.552;9.380;2023-08-07T00:51:05;6.15;;;2.47;;
62463;SDS011;48512;48.552;9.380;2023-08-07T00:53:33;5.18;;;2.08;;
62463;SDS011;48512;48.552;9.380;2023-08-07T00:56:03;3.70;;;1.73;;
62463;SDS011;48512;48.552;9.380;2023-08-07T00:58:29;8.68;;;2.25;;
62463;SDS011;48512;48.552;9.380;2023-08-07T01:00:56;4.05;;;1.70;;
62463;SDS011;48512;48.552;9.380;2023-08-07T01:03:24;4.38;;;1.88;;
62463;SDS011;48512;48.552;9.380;2023-08-07T01:05:50;4.45;;;1.70;;
62463;SDS011;48512;48.552;9.380;2023-08-07T01:08:16;5.90;;;1.80;;
62463;SDS011;48512;48.552;9.380;2023-08-07T01:16:40;4.95;;;1.70;;
62463;SDS011;48512;48.552;9.380;2023-08-07T01:19:15;3.17;;;1.58;;
62463;SDS011;48512;48.552;9.380;2023-08-07T01:21:49;3.13;;;1.70;;
62463;SDS011;48512;48.552;9.380;2023-08-07T01:24:15;3.63;;;1.42;;
62463;SDS011;48512;48.552;9.380;2023-08-07T01:26:42;3.30;;;1.70;;
62463;SDS011;48512;48.552;9.380;2023-08-07T01:29:22;3.42;;;1.73;;
62463;SDS011;48512;48.552;9.380;2023-08-07T01:31:56;4.00;;;1.83;;
62463;SDS011;48512;48.552;9.380;2023-08-07T01:34:24;4.00;;;2.03;;
62463;SDS011;48512;48.552;9.380;2023-08-07T01:36:51;4.68;;;1.63;;
62463;SDS011;48512;48.552;9.380;2023-08-07T01:39:20;4.85;;;1.80;;
62463;SDS011;48512;48.552;9.380;2023-08-07T01:41:48;5.75;;;1.88;;
62463;SDS011;48512;48.552;9.380;2023-08-07T01:44:16;3.55;;;1.85;;
62463;SDS011;48512;48.552;9.380;2023-08-07T01:46:42;4.18;;;1.95;;
62463;SDS011;48512;48.552;9.380;2023-08-07T01:49:08;4.32;;;1.67;;
62463;SDS011;48512;48.552;9.380;2023-08-07T01:51:34;6.32;;;1.90;;
62463;SDS011;48512;48.552;9.380;2023-08-07T01:54:00;4.47;;;2.05;;
62463;SDS011;48512;48.552;9.380;2023-08-07T01:56:26;3.78;;;1.63;;
62463;SDS011;48512;48.552;9.380;2023-08-07T01:58:52;9.48;;;2.50;;
62463;SDS011;48512;48.552;9.380;2023-08-07T02:01:18;4.88;;;2.10;;
62463;SDS011;48512;48.552;9.380;2023-08-07T02:03:44;3.55;;;1.80;;
62463;SDS011;48512;48.552;9.380;2023-08-07T02:06:10;4.47;;;2.03;;
62463;SDS011;48512;48.552;9.380;2023-08-07T02:08:37;5.82;;;2.35;;
62463;SDS011;48512;48.552;9.380;2023-08-07T02:11:03;5.05;;;2.30;;
62463;SDS011;48512;48.552;9.380;2023-08-07T02:13:29;3.97;;;1.95;;
62463;SDS011;48512;48.552;9.380;2023-08-07T02:15:55;7.63;;;2.42;;
62463;SDS011;48512;48.552;9.380;2023-08-07T02:18:21;5.50;;;2.22;;
62463;SDS011;48512;48.552;9.380;2023-08-07T02:20:47;5.13;;;2.25;;
62463;SDS011;48512;48.552;9.380;2023-08-07T02:23:13;4.38;;;1.88;;
62463;SDS011;48512;48.552;9.380;2023-08-07T02:25:39;6.22;;;1.90;;
62463;SDS011;48512;48.552;9.380;2023-08-07T02:28:05;5.80;;;1.83;;
62463;SDS011;48512;48.552;9.380;2023-08-07T02:30:33;3.47;;;1.80;;
62463;SDS011;48512;48.552;9.380;2023-08-07T02:32:59;4.63;;;1.90;;
62463;SDS011;48512;48.552;9.380;2023-08-07T02:35:25;3.17;;;2.05;;
62463;SDS011;48512;48.552;9.380;2023-08-07T02:37:51;4.90;;;1.85;;
62463;SDS011;48512;48.552;9.380;2023-08-07T02:40:17;5.70;;;1.77;;
62463;SDS011;48512;48.552;9.380;2023-08-07T02:42:44;4.03;;;1.80;;
62463;SDS011;48512;48.552;9.380;2023-08-07T02:45:11;5.07;;;2.00;;
62463;SDS011;48512;48.552;9.380;2023-08-07T02:47:37;7.28;;;3.00;;
62463;SDS011;48512;48.552;9.380;2023-08-07T02:50:03;6.57;;;1.92;;
62463;SDS011;48512;48.552;9.380;2023-08-07T02:52:29;4.13;;;1.95;;
62463;SDS011;48512;48.552;9.380;2023-08-07T02:54:55;4.50;;;2.08;;
62463;SDS011;48512;48.552;9.380;2023-08-07T02:57:21;5.20;;;2.15;;
62463;SDS011;48512;48.552;9.380;2023-08-07T02:59:48;7.82;;;2.45;;
62463;SDS011;48512;48.552;9.380;2023-08-07T03:02:14;5.13;;;2.10;;
62463;SDS011;48512;48.552;9.380;2023-08-07T03:04:40;6.88;;;2.03;;
62463;SDS011;48512;48.552;9.380;2023-08-07T03:07:06;4.50;;;1.95;;
62463;SDS011;48512;48.552;9.380;2023-08-07T03:09:32;3.80;;;2.00;;
62463;SDS011;48512;48.552;9.380;2023-08-07T03:11:58;5.10;;;2.10;;
62463;SDS011;48512;48.552;9.380;2023-08-07T03:14:29;6.03;;;1.90;;
62463;SDS011;48512;48.552;9.380;2023-08-07T03:16:55;4.70;;;2.00;;
62463;SDS011;48512;48.552;9.380;2023-08-07T03:19:21;4.75;;;1.92;;
62463;SDS011;48512;48.552;9.380;2023-08-07T03:21:47;5.80;;;2.13;;
62463;SDS011;48512;48.552;9.380;2023-08-07T03:24:14;5.45;;;2.20;;
62463;SDS011;48512;48.552;9.380;2023-08-07T03:26:40;4.43;;;1.80;;
62463;SDS011;48512;48.552;9.380;2023-08-07T03:29:06;7.68;;;2.42;;
62463;SDS011;48512;48.552;9.380;2023-08-07T03:31:33;5.60;;;2.30;;
62463;SDS011;48512;48.552;9.380;2023-08-07T03:33:59;4.05;;;1.70;;
62463;SDS011;48512;48.552;9.380;2023-08-07T03:36:27;7.13;;;1.73;;
62463;SDS011;48512;48.552;9.380;2023-08-07T03:38:53;6.75;;;2.20;;
62463;SDS011;48512;48.552;9.380;2023-08-07T03:41:19;5.32;;;2.10;;
62463;SDS011;48512;48.552;9.380;2023-08-07T03:43:46;8.95;;;2.20;;
62463;SDS011;48512;48.552;9.380;2023-08-07T03:46:12;7.57;;;2.20;;
62463;SDS011;48512;48.552;9.380;2023-08-07T03:48:38;4.53;;;1.80;;
62463;SDS011;48512;48.552;9.380;2023-08-07T03:51:06;7.65;;;1.85;;
62463;SDS011;48512;48.552;9.380;2023-08-07T03:53:48;4.18;;;1.85;;
62463;SDS011;48512;48.552;9.380;2023-08-07T03:56:15;6.85;;;2.38;;
62463;SDS011;48512;48.552;9.380;2023-08-07T03:58:41;6.40;;;2.00;;
62463;SDS011;48512;48.552;9.380;2023-08-07T04:01:07;4.28;;;1.85;;
62463;SDS011;48512;48.552;9.380;2023-08-07T04:03:34;5.63;;;2.45;;
62463;SDS011;48512;48.552;9.380;2023-08-07T04:06:01;3.83;;;1.80;;
62463;SDS011;48512;48.552;9.380;2023-08-07T04:08:27;6.40;;;2.05;;
62463;SDS011;48512;48.552;9.380;2023-08-07T04:11:06;4.47;;;2.13;;
62463;SDS011;48512;48.552;9.380;2023-08-07T04:13:34;4.10;;;1.90;;
62463;SDS011;48512;48.552;9.380;2023-08-07T04:16:01;8.60;;;2.42;;
62463;SDS011;48512;48.552;9.380;2023-08-07T04:18:33;5.30;;;2.10;;
62463;SDS011;48512;48.552;9.380;2023-08-07T04:21:01;5.43;;;1.98;;
62463;SDS011;48512;48.552;9.380;2023-08-07T04:23:27;4.63;;;2.65;;
62463;SDS011;48512;48.552;9.380;2023-08-07T04:25:54;5.13;;;2.13;;
62463;SDS011;48512;48.552;9.380;2023-08-07T04:28:20;4.38;;;1.98;;
62463;SDS011;48512;48.552;9.380;2023-08-07T04:30:48;4.85;;;2.33;;
62463;SDS011;48512;48.552;9.380;2023-08-07T04:33:16;5.55;;;2.17;;
62463;SDS011;48512;48.552;9.380;2023-08-07T04:35:43;4.10;;;1.83;;
62463;SDS011;48512;48.552;9.380;2023-08-07T04:38:09;6.57;;;2.20;;
62463;SDS011;48512;48.552;9.380;2023-08-07T04:40:35;5.10;;;1.92;;
62463;SDS011;48512;48.552;9.380;2023-08-07T04:43:01;5.70;;;2.67;;
62463;SDS011;48512;48.552;9.380;2023-08-07T04:45:28;8.07;;;2.17;;
62463;SDS011;48512;48.552;9.380;2023-08-07T04:47:54;4.43;;;2.22;;
62463;SDS011;48512;48.552;9.380;2023-08-07T04:50:20;5.45;;;2.22;;
62463;SDS011;48512;48.552;9.380;2023-08-07T04:52:46;4.93;;;1.98;;
62463;SDS011;48512;48.552;9.380;2023-08-07T04:55:12;4.45;;;2.45;;
62463;SDS011;48512;48.552;9.380;2023-08-07T04:57:38;3.80;;;2.00;;
62463;SDS011;48512;48.552;9.380;2023-08-07T05:00:04;4.68;;;2.17;;
62463;SDS011;48512;48.552;9.380;2023-08-07T05:02:31;5.10;;;2.30;;
62463;SDS011;48512;48.552;9.380;2023-08-07T05:04:57;5.47;;;2.80;;
62463;SDS011;48512;48.552;9.380;2023-08-07T05:07:23;9.43;;;3.10;;
62463;SDS011;48512;48.552;9.380;2023-08-07T05:09:52;6.13;;;2.38;;
62463;SDS011;48512;48.552;9.380;2023-08-07T05:12:21;4.90;;;2.30;;
62463;SDS011;48512;48.552;9.380;2023-08-07T05:14:48;6.20;;;2.33;;
62463;SDS011;48512;48.552;9.380;2023-08-07T05:17:14;5.03;;;2.38;;
62463;SDS011;48512;48.552;9.380;2023-08-07T05:19:40;5.72;;;2.10;;
62463;SDS011;48512;48.552;9.380;2023-08-07T05:22:06;7.25;;;2.22;;
62463;SDS011;48512;48.552;9.380;2023-08-07T05:24:32;6.65;;;2.60;;
62463;SDS011;48512;48.552;9.380;2023-08-07T05:27:05;5.30;;;2.30;;
62463;SDS011;48512;48.552;9.380;2023-08-07T05:29:34;6.50;;;2.67;;
62463;SDS011;48512;48.552;9.380;2023-08-07T05:32:00;7.95;;;3.35;;
62463;SDS011;48512;48.552;9.380;2023-08-07T05:34:26;4.20;;;2.42;;
62463;SDS011;48512;48.552;9.380;2023-08-07T05:36:52;6.28;;;2.28;;
62463;SDS011;48512;48.552;9.380;2023-08-07T05:39:18;7.65;;;2.95;;
62463;SDS011;48512;48.552;9.380;2023-08-07T05:41:45;5.20;;;2.72;;
62463;SDS011;48512;48.552;9.380;2023-08-07T05:44:11;6.53;;;2.53;;
62463;SDS011;48512;48.552;9.380;2023-08-07T05:46:37;6.30;;;2.28;;
62463;SDS011;48512;48.552;9.380;2023-08-07T05:49:03;6.22;;;2.60;;
62463;SDS011;48512;48.552;9.380;2023-08-07T05:51:29;5.47;;;2.10;;
62463;SDS011;48512;48.552;9.380;2023-08-07T05:53:55;4.60;;;2.22;;
62463;SDS011;48512;48.552;9.380;2023-08-07T05:56:21;4.28;;;2.30;;
62463;SDS011;48512;48.552;9.380;2023-08-07T05:58:47;4.57;;;2.17;;
62463;SDS011;48512;48.552;9.380;2023-08-07T06:01:13;4.40;;;2.03;;
62463;SDS011;48512;48.552;9.380;2023-08-07T06:03:42;4.90;;;2.20;;
62463;SDS011;48512;48.552;9.380;2023-08-07T06:06:08;4.10;;;2.20;;
62463;SDS011;48512;48.552;9.380;2023-08-07T06:08:34;5.32;;;2.08;;
62463;SDS011;48512;48.552;9.380;2023-08-07T06:11:01;6.35;;;2.38;;
62463;SDS011;48512;48.552;9.380;2023-08-07T06:13:30;4.80;;;2.30;;
62463;SDS011;48512;48.552;9.380;2023-08-07T06:15:56;4.60;;;2.25;;
62463;SDS011;48512;48.552;9.380;2023-08-07T06:18:23;10.90;;;2.47;;
62463;SDS011;48512;48.552;9.380;2023-08-07T06:20:49;8.40;;;2.53;;
62463;SDS011;48512;48.552;9.380;2023-08-07T06:23:15;7.18;;;2.40;;
62463;SDS011;48512;48.552;9.380;2023-08-07T06:25:41;5.30;;;2.47;;
62463;SDS011;48512;48.552;9.380;2023-08-07T06:28:08;5.88;;;2.00;;
62463;SDS011;48512;48.552;9.380;2023-08-07T06:30:34;8.57;;;2.85;;
62463;SDS011;48512;48.552;9.380;2023-08-07T06:33:00;5.05;;;2.55;;
62463;SDS011;48512;48.552;9.380;2023-08-07T06:35:26;4.93;;;2.20;;
62463;SDS011;48512;48.552;9.380;2023-08-07T06:37:52;7.72;;;2.25;;
62463;SDS011;48512;48.552;9.380;2023-08-07T06:40:19;5.68;;;2.58;;
62463;SDS011;48512;48.552;9.380;2023-08-07T06:42:45;6.88;;;2.50;;
62463;SDS011;48512;48.552;9.380;2023-08-07T06:45:11;7.20;;;2.53;;
62463;SDS011;48512;48.552;9.380;2023-08-07T06:47:37;6.57;;;2.40;;
62463;SDS011;48512;48.552;9.380;2023-08-07T06:50:03;6.80;;;2.15;;
62463;SDS011;48512;48.552;9.380;2023-08-07T06:52:29;5.28;;;2.40;;
62463;SDS011;48512;48.552;9.380;2023-08-07T06:54:55;5.85;;;2.28;;
62463;SDS011;48512;48.552;9.380;2023-08-07T06:57:22;4.53;;;2.50;;
62463;SDS011;48512;48.552;9.380;2023-08-07T06:59:48;8.45;;;2.72;;
62463;SDS011;48512;48.552;9.380;2023-08-07T07:02:14;5.35;;;2.40;;
62463;SDS011;48512;48.552;9.380;2023-08-07T07:04:40;6.68;;;3.08;;
62463;SDS011;48512;48.552;9.380;2023-08-07T07:07:06;3.55;;;2.58;;
62463;SDS011;48512;48.552;9.380;2023-08-07T07:09:32;5.55;;;2.42;;
62463;SDS011;48512;48.552;9.380;2023-08-07T07:11:59;5.35;;;2.60;;
62463;SDS011;48512;48.552;9.380;2023-08-07T07:14:25;4.70;;;2.35;;
62463;SDS011;48512;48.552;9.380;2023-08-07T07:16:51;4.47;;;2.33;;
62463;SDS011;48512;48.552;9.380;2023-08-07T07:19:17;3.95;;;2.00;;
62463;SDS011;48512;48.552;9.380;2023-08-07T07:21:44;4.35;;;2.78;;
62463;SDS011;48512;48.552;9.380;2023-08-07T07:24:10;8.32;;;2.58;;
62463;SDS011;48512;48.552;9.380;2023-08-07T07:26:36;8.13;;;2.00;;
62463;SDS011;48512;48.552;9.380;2023-08-07T07:29:02;6.15;;;2.60;;
62463;SDS011;48512;48.552;9.380;2023-08-07T07:31:28;6.82;;;2.67;;
62463;SDS011;48512;48.552;9.380;2023-08-07T07:33:54;6.80;;;2.55;;
62463;SDS011;48512;48.552;9.380;2023-08-07T07:36:20;6.72;;;2.65;;
62463;SDS011;48512;48.552;9.380;2023-08-07T07:38:47;10.05;;;2.63;;
62463;SDS011;48512;48.552;9.380;2023-08-07T07:41:14;6.90;;;2.42;;
62463;SDS011;48512;48.552;9.380;2023-08-07T07:43:41;3.97;;;2.20;;
62463;SDS011;48512;48.552;9.380;2023-08-07T07:46:07;3.55;;;2.25;;
62463;SDS011;48512;48.552;9.380;2023-08-07T07:48:33;9.02;;;2.42;;
62463;SDS011;48512;48.552;9.380;2023-08-07T07:51:00;4.68;;;2.25;;
62463;SDS011;48512;48.552;9.380;2023-08-07T07:53:27;5.35;;;2.30;;
62463;SDS011;48512;48.552;9.380;2023-08-07T07:55:53;5.97;;;2.80;;
62463;SDS011;48512;48.552;9.380;2023-08-07T07:58:20;8.60;;;3.20;;
62463;SDS011;48512;48.552;9.380;2023-08-07T08:00:46;4.03;;;2.47;;
62463;SDS011;48512;48.552;9.380;2023-08-07T08:03:13;4.30;;;2.40;;
62463;SDS011;48512;48.552;9.380;2023-08-07T08:05:39;4.90;;;2.47;;
62463;SDS011;48512;48.552;9.380;2023-08-07T08:08:05;6.78;;;2.65;;
62463;SDS011;48512;48.552;9.380;2023-08-07T08:10:33;5.90;;;2.42;;
62463;SDS011;48512;48.552;9.380;2023-08-07T08:13:00;6.40;;;2.70;;
62463;SDS011;48512;48.552;9.380;2023-08-07T08:15:26;5.55;;;2.40;;
62463;SDS011;48512;48.552;9.380;2023-08-07T08:17:52;6.60;;;2.60;;
62463;SDS011;48512;48.552;9.380;2023-08-07T08:20:18;9.02;;;2.58;;
62463;SDS011;48512;48.552;9.380;2023-08-07T08:22:45;5.07;;;2.50;;
62463;SDS011;48512;48.552;9.380;2023-08-07T08:25:11;4.60;;;2.30;;
62463;SDS011;48512;48.552;9.380;2023-08-07T08:27:38;3.70;;;2.30;;
62463;SDS011;48512;48.552;9.380;2023-08-07T08:30:05;5.57;;;2.50;;
62463;SDS011;48512;48.552;9.380;2023-08-07T08:32:32;5.80;;;2.30;;
62463;SDS011;48512;48.552;9.380;2023-08-07T08:34:58;7.82;;;2.63;;
62463;SDS011;48512;48.552;9.380;2023-08-07T08:37:24;4.97;;;2.45;;
62463;SDS011;48512;48.552;9.380;2023-08-07T08:39:50;4.57;;;2.00;;
62463;SDS011;48512;48.552;9.380;2023-08-07T08:42:17;4.88;;;2.15;;
62463;SDS011;48512;48.552;9.380;2023-08-07T08:44:48;3.17;;;2.25;;
62463;SDS011;48512;48.552;9.380;2023-08-07T08:47:20;4.40;;;2.08;;
62463;SDS011;48512;48.552;9.380;2023-08-07T08:49:49;2.50;;;1.80;;
62463;SDS011;48512;48.552;9.380;2023-08-07T08:52:20;7.53;;;2.08;;
62463;SDS011;48512;48.552;9.380;2023-08-07T08:54:46;4.50;;;1.90;;
62463;SDS011;48512;48.552;9.380;2023-08-07T08:57:13;3.47;;;1.90;;
62463;SDS011;48512;48.552;9.380;2023-08-07T08:59:42;3.60;;;1.67;;
62463;SDS011;48512;48.552;9.380;2023-08-07T09:02:08;2.95;;;1.50;;
62463;SDS011;48512;48.552;9.380;2023-08-07T09:04:36;4.10;;;1.73;;
62463;SDS011;48512;48.552;9.380;2023-08-07T09:07:02;4.65;;;1.73;;
62463;SDS011;48512;48.552;9.380;2023-08-07T09:09:29;4.07;;;1.70;;
62463;SDS011;48512;48.552;9.380;2023-08-07T09:11:57;4.88;;;1.60;;
62463;SDS011;48512;48.552;9.380;2023-08-07T09:14:25;2.22;;;1.48;;
62463;SDS011;48512;48.552;9.380;2023-08-07T09:16:52;2.28;;;1.50;;
62463;SDS011;48512;48.552;9.380;2023-08-07T09:19:19;2.85;;;1.50;;
62463;SDS011;48512;48.552;9.380;2023-08-07T09:21:46;3.97;;;1.50;;
62463;SDS011;48512;48.552;9.380;2023-08-07T09:24:12;4.43;;;2.03;;
62463;SDS011;48512;48.552;9.380;2023-08-07T09:26:38;2.83;;;1.50;;
62463;SDS011;48512;48.552;9.380;2023-08-07T09:29:09;1.83;;;1.30;;
62463;SDS011;48512;48.552;9.380;2023-08-07T09:31:42;3.88;;;1.40;;
62463;SDS011;48512;48.552;9.380;2023-08-07T09:34:11;2.22;;;1.40;;
62463;SDS011;48512;48.552;9.380;2023-08-07T09:36:40;2.20;;;1.30;;
62463;SDS011;48512;48.552;9.380;2023-08-07T09:39:06;4.15;;;1.25;;
62463;SDS011;48512;48.552;9.380;2023-08-07T09:41:33;1.23;;;1.10;;
62463;SDS011;48512;48.552;9.380;2023-08-07T09:44:05;3.67;;;1.40;;
62463;SDS011;48512;48.552;9.380;2023-08-07T09:46:41;2.55;;;1.23;;
62463;SDS011;48512;48.552;9.380;2023-08-07T09:49:08;1.88;;;1.20;;
62463;SDS011;48512;48.552;9.380;2023-08-07T09:51:44;2.30;;;1.25;;
62463;SDS011;48512;48.552;9.380;2023-08-07T09:54:12;2.22;;;1.40;;
62463;SDS011;48512;48.552;9.380;2023-08-07T09:56:41;2.33;;;1.52;;
62463;SDS011;48512;48.552;9.380;2023-08-07T09:59:08;2.28;;;1.27;;
62463;SDS011;48512;48.552;9.380;2023-08-07T10:01:37;3.45;;;1.20;;
62463;SDS011;48512;48.552;9.380;2023-08-07T10:04:05;1.92;;;1.15;;
62463;SDS011;48512;48.552;9.380;2023-08-07T10:06:31;2.50;;;1.25;;
62463;SDS011;48512;48.552;9.380;2023-08-07T10:08:57;3.10;;;1.17;;
62463;SDS011;48512;48.552;9.380;2023-08-07T10:11:26;3.50;;;1.40;;
62463;SDS011;48512;48.552;9.380;2023-08-07T10:13:52;1.83;;;1.13;;
62463;SDS011;48512;48.552;9.380;2023-08-07T10:16:20;4.13;;;1.55;;
62463;SDS011;48512;48.552;9.380;2023-08-07T10:18:46;3.03;;;1.70;;
62463;SDS011;48512;48.552;9.380;2023-08-07T10:21:12;4.13;;;1.38;;
62463;SDS011;48512;48.552;9.380;2023-08-07T10:23:38;2.10;;;1.40;;
62463;SDS011;48512;48.552;9.380;2023-08-07T10:26:05;3.28;;;1.40;;
62463;SDS011;48512;48.552;9.380;2023-08-07T10:31:05;3.45;;;1.70;;
62463;SDS011;48512;48.552;9.380;2023-08-07T10:33:32;2.10;;;1.23;;
62463;SDS011;48512;48.552;9.380;2023-08-07T10:35:59;2.28;;;1.13;;
62463;SDS011;48512;48.552;9.380;2023-08-07T10:38:26;3.38;;;1.08;;
62463;SDS011;48512;48.552;9.380;2023-08-07T10:40:58;3.63;;;1.20;;
62463;SDS011;48512;48.552;9.380;2023-08-07T10:43:27;1.55;;;0.98;;
62463;SDS011;48512;48.552;9.380;2023-08-07T10:46:00;1.20;;;1.02;;
62463;SDS011;48512;48.552;9.380;2023-08-07T10:48:29;1.40;;;0.98;;
62463;SDS011;48512;48.552;9.380;2023-08-07T10:51:03;1.85;;;1.20;;
62463;SDS011;48512;48.552;9.380;2023-08-07T10:56:03;3.58;;;1.30;;
62463;SDS011;48512;48.552;9.380;2023-08-07T10:58:33;2.42;;;1.30;;
62463;SDS011;48512;48.552;9.380;2023-08-07T11:04:06;2.10;;;1.20;;
62463;SDS011;48512;48.552;9.380;2023-08-07T11:06:37;2.33;;;1.00;;
62463;SDS011;48512;48.552;9.380;2023-08-07T11:09:07;2.08;;;1.10;;
62463;SDS011;48512;48.552;9.380;2023-08-07T11:12:08;2.97;;;1.55;;
62463;SDS011;48512;48.552;9.380;2023-08-07T11:14:27;3.75;;;1.25;;
62463;SDS011;48512;48.552;9.380;2023-08-07T11:16:53;2.42;;;1.30;;
62463;SDS011;48512;48.552;9.380;2023-08-07T11:19:19;1.88;;;1.20;;
62463;SDS011;48512;48.552;9.380;2023-08-07T11:21:46;3.42;;;1.15;;
62463;SDS011;48512;48.552;9.380;2023-08-07T11:24:13;1.13;;;1.02;;
62463;SDS011;48512;48.552;9.380;2023-08-07T11:26:44;1.63;;;1.27;;
62463;SDS011;48512;48.552;9.380;2023-08-07T11:29:10;2.63;;;1.30;;
62463;SDS011;48512;48.552;9.380;2023-08-07T11:31:36;2.42;;;1.10;;
62463;SDS011;48512;48.552;9.380;2023-08-07T11:34:02;2.50;;;1.38;;
62463;SDS011;48512;48.552;9.380;2023-08-07T11:36:29;3.60;;;1.35;;
62463;SDS011;48512;48.552;9.380;2023-08-07T11:38:55;2.75;;;1.48;;
62463;SDS011;48512;48.552;9.380;2023-08-07T11:41:21;2.75;;;1.10;;
62463;SDS011;48512;48.552;9.380;2023-08-07T11:43:47;2.88;;;1.40;;
62463;SDS011;48512;48.552;9.380;2023-08-07T11:46:14;1.83;;;1.20;;
62463;SDS011;48512;48.552;9.380;2023-08-07T11:48:41;2.95;;;1.73;;
62463;SDS011;48512;48.552;9.380;2023-08-07T11:51:08;1.88;;;1.52;;
62463;SDS011;48512;48.552;9.380;2023-08-07T11:53:35;1.33;;;1.20;;
62463;SDS011;48512;48.552;9.380;2023-08-07T11:56:09;2.03;;;1.50;;
62463;SDS011;48512;48.552;9.380;2023-08-07T11:58:37;3.22;;;1.48;;
62463;SDS011;48512;48.552;9.380;2023-08-07T12:01:15;2.70;;;1.13;;
62463;SDS011;48512;48.552;9.380;2023-08-07T12:06:55;1.42;;;1.20;;
62463;SDS011;48512;48.552;9.380;2023-08-07T12:11:48;2.45;;;1.52;;
62463;SDS011;48512;48.552;9.380;2023-08-07T12:14:14;2.90;;;1.60;;
62463;SDS011;48512;48.552;9.380;2023-08-07T12:16:43;3.40;;;1.50;;
62463;SDS011;48512;48.552;9.380;2023-08-07T12:19:11;2.88;;;1.33;;
62463;SDS011;48512;48.552;9.380;2023-08-07T12:21:37;3.10;;;1.30;;
62463;SDS011;48512;48.552;9.380;2023-08-07T12:24:06;2.38;;;1.60;;
62463;SDS011;48512;48.552;9.380;2023-08-07T12:26:33;3.55;;;1.80;;
62463;SDS011;48512;48.552;9.380;2023-08-07T12:28:59;6.13;;;1.70;;
62463;SDS011;48512;48.552;9.380;2023-08-07T12:31:25;3.85;;;1.55;;
62463;SDS011;48512;48.552;9.380;2023-08-07T12:33:51;3.22;;;1.38;;
62463;SDS011;48512;48.552;9.380;2023-08-07T12:36:17;4.47;;;1.38;;
62463;SDS011;48512;48.552;9.380;2023-08-07T12:38:43;3.15;;;1.10;;
62463;SDS011;48512;48.552;9.380;2023-08-07T12:41:09;3.05;;;1.15;;
62463;SDS011;48512;48.552;9.380;2023-08-07T12:43:36;4.15;;;1.45;;
62463;SDS011;48512;48.552;9.380;2023-08-07T12:46:02;3.00;;;1.33;;
62463;SDS011;48512;48.552;9.380;2023-08-07T12:48:29;2.83;;;1.25;;
62463;SDS011;48512;48.552;9.380;2023-08-07T12:50:55;1.80;;;1.50;;
62463;SDS011;48512;48.552;9.380;2023-08-07T12:53:21;1.83;;;1.40;;
62463;SDS011;48512;48.552;9.380;2023-08-07T12:55:47;2.42;;;1.42;;
62463;SDS011;48512;48.552;9.380;2023-08-07T12:58:13;3.75;;;1.40;;
62463;SDS011;48512;48.552;9.380;2023-08-07T13:00:39;4.60;;;1.38;;
62463;SDS011;48512;48.552;9.380;2023-08-07T13:03:05;2.97;;;1.52;;
62463;SDS011;48512;48.552;9.380;2023-08-07T13:05:31;1.50;;;1.40;;
62463;SDS011;48512;48.552;9.380;2023-08-07T13:07:57;2.30;;;1.65;;
62463;SDS011;48512;48.552;9.380;2023-08-07T13:10:24;3.17;;;1.70;;
62463;SDS011;48512;48.552;9.380;2023-08-07T13:15:20;2.88;;;1.55;;
62463;SDS011;48512;48.552;9.380;2023-08-07T13:17:46;1.40;;;1.20;;
62463;SDS011;48512;48.552;9.380;2023-08-07T13:20:13;2.83;;;1.33;;
62463;SDS011;48512;48.552;9.380;2023-08-07T13:22:40;2.53;;;1.70;;
62463;SDS011;48512;48.552;9.380;2023-08-07T13:25:08;1.85;;;1.45;;
62463;SDS011;48512;48.552;9.380;2023-08-07T13:27:35;2.00;;;1.50;;
62463;SDS011;48512;48.552;9.380;2023-08-07T13:30:02;2.38;;;1.05;;
62463;SDS011;48512;48.552;9.380;2023-08-07T13:32:30;4.20;;;3.15;;
62463;SDS011;48512;48.552;9.380;2023-08-07T13:34:57;2.83;;;1.80;;
62463;SDS011;48512;48.552;9.380;2023-08-07T13:37:23;2.33;;;1.67;;
62463;SDS011;48512;48.552;9.380;2023-08-07T13:39:50;2.95;;;2.10;;
62463;SDS011;48512;48.552;9.380;2023-08-07T13:42:18;3.47;;;2.28;;
62463;SDS011;48512;48.552;9.380;2023-08-07T13:44:44;2.90;;;1.70;;
62463;SDS011;48512;48.552;9.380;2023-08-07T13:47:10;3.30;;;1.70;;
62463;SDS011;48512;48.552;9.380;2023-08-07T13:49:37;3.28;;;1.50;;
62463;SDS011;48512;48.552;9.380;2023-08-07T13:52:04;3.35;;;1.80;;
62463;SDS011;48512;48.552;9.380;2023-08-07T13:54:31;2.15;;;1.50;;
62463;SDS011;48512;48.552;9.380;2023-08-07T13:56:57;2.78;;;1.55;;
62463;SDS011;48512;48.552;9.380;2023-08-07T13:59:23;5.82;;;4.18;;
62463;SDS011;48512;48.552;9.380;2023-08-07T14:01:49;2.38;;;1.73;;
62463;SDS011;48512;48.552;9.380;2023-08-07T14:04:16;2.80;;;1.83;;
62463;SDS011;48512;48.552;9.380;2023-08-07T14:06:42;4.13;;;1.50;;
62463;SDS011;48512;48.552;9.380;2023-08-07T14:09:10;1.92;;;1.40;;
62463;SDS011;48512;48.552;9.380;2023-08-07T14:11:37;1.80;;;1.27;;
62463;SDS011;48512;48.552;9.380;2023-08-07T14:14:03;2.72;;;1.45;;
62463;SDS011;48512;48.552;9.380;2023-08-07T14:16:29;1.83;;;1.20;;
62463;SDS011;48512;48.552;9.380;2023-08-07T14:18:57;1.52;;;1.20;;
62463;SDS011;48512;48.552;9.380;2023-08-07T14:21:23;2.13;;;1.20;;
62463;SDS011;48512;48.552;9.380;2023-08-07T14:23:50;2.63;;;1.30;;
62463;SDS011;48512;48.552;9.380;2023-08-07T14:26:16;3.03;;;1.23;;
62463;SDS011;48512;48.552;9.380;2023-08-07T14:28:44;2.50;;;1.13;;
62463;SDS011;48512;48.552;9.380;2023-08-07T14:31:10;1.58;;;1.20;;
62463;SDS011;48512;48.552;9.380;2023-08-07T14:33:37;1.33;;;1.10;;
62463;SDS011;48512;48.552;9.380;2023-08-07T14:36:03;1.80;;;1.40;;
62463;SDS011;48512;48.552;9.380;2023-08-07T14:38:30;1.60;;;1.25;;
62463;SDS011;48512;48.552;9.380;2023-08-07T14:40:56;2.70;;;1.20;;
62463;SDS011;48512;48.552;9.380;2023-08-07T14:43:22;6.50;;;1.55;;
62463;SDS011;48512;48.552;9.380;2023-08-07T14:45:49;2.45;;;1.58;;
62463;SDS011;48512;48.552;9.380;2023-08-07T14:48:15;3.05;;;1.80;;
62463;SDS011;48512;48.552;9.380;2023-08-07T14:50:41;2.75;;;1.30;;
62463;SDS011;48512;48.552;9.380;2023-08-07T14:53:08;2.05;;;1.30;;
62463;SDS011;48512;48.552;9.380;2023-08-07T14:55:34;1.73;;;1.30;;
62463;SDS011;48512;48.552;9.380;2023-08-07T14:58:00;2.97;;;1.40;;
62463;SDS011;48512;48.552;9.380;2023-08-07T15:00:26;3.42;;;1.38;;
62463;SDS011;48512;48.552;9.380;2023-08-07T15:02:52;2.25;;;1.60;;
62463;SDS011;48512;48.552;9.380;2023-08-07T15:05:18;4.93;;;2.50;;
62463;SDS011;48512;48.552;9.380;2023-08-07T15:07:45;1.80;;;1.35;;
62463;SDS011;48512;48.552;9.380;2023-08-07T15:10:11;4.03;;;1.65;;